sensor_id;sensor_type;location;lat;lon;timestamp;P1;durP1;ratioP1;P2;durP2;ratioP2
14048;SDS011;7099;53.922;10.728;2022-11-20T00:03:35;4.47;;;3.67;;
14048;SDS011;7099;53.922;10.728;2022-11-20T00:07:40;3.90;;;3.47;;
14048;SDS011;7099;53.922;10.728;2022-11-20T00:11:45;4.07;;;3.40;;
14048;SDS011;7099;53.922;10.728;2022-11-20T00:15:56;5.30;;;3.40;;
14048;SDS011;7099;53.922;10.728;2022-11-20T00:20:03;4.83;;;3.63;;
14048;SDS011;7099;53.922;10.728;2022-11-20T00:24:09;4.53;;;3.53;;
14048;SDS011;7099;53.922;10.728;2022-11-20T00:28:14;3.67;;;3.37;;
14048;SDS011;7099;53.922;10.728;2022-11-20T00:32:19;4.90;;;3.67;;
14048;SDS011;7099;53.922;10.728;2022-11-20T00:36:25;4.00;;;3.20;;
14048;SDS011;7099;53.922;10.728;2022-11-20T00:40:32;3.80;;;3.40;;
14048;SDS011;7099;53.922;10.728;2022-11-20T00:44:37;3.90;;;3.50;;
14048;SDS011;7099;53.922;10.728;2022-11-20T00:48:42;4.37;;;3.60;;
14048;SDS011;7099;53.922;10.728;2022-11-20T00:52:48;4.30;;;3.40;;
14048;SDS011;7099;53.922;10.728;2022-11-20T00:56:53;4.10;;;3.70;;
14048;SDS011;7099;53.922;10.728;2022-11-20T01:01:01;3.80;;;3.40;;
14048;SDS011;7099;53.922;10.728;2022-11-20T01:05:09;3.90;;;3.60;;
14048;SDS011;7099;53.922;10.728;2022-11-20T01:09:14;4.00;;;3.50;;
14048;SDS011;7099;53.922;10.728;2022-11-20T01:13:19;3.90;;;3.40;;
14048;SDS011;7099;53.922;10.728;2022-11-20T01:17:42;2.97;;;2.67;;
14048;SDS011;7099;53.922;10.728;2022-11-20T01:21:48;5.90;;;3.60;;
14048;SDS011;7099;53.922;10.728;2022-11-20T01:25:55;3.80;;;3.43;;
14048;SDS011;7099;53.922;10.728;2022-11-20T01:30:01;3.57;;;3.27;;
14048;SDS011;7099;53.922;10.728;2022-11-20T01:34:06;3.80;;;3.40;;
14048;SDS011;7099;53.922;10.728;2022-11-20T01:38:16;3.10;;;2.90;;
14048;SDS011;7099;53.922;10.728;2022-11-20T01:42:21;3.80;;;3.40;;
14048;SDS011;7099;53.922;10.728;2022-11-20T01:46:53;4.03;;;3.60;;
14048;SDS011;7099;53.922;10.728;2022-11-20T01:51:03;4.40;;;3.97;;
14048;SDS011;7099;53.922;10.728;2022-11-20T01:55:13;3.83;;;3.43;;
14048;SDS011;7099;53.922;10.728;2022-11-20T01:59:23;4.50;;;3.90;;
14048;SDS011;7099;53.922;10.728;2022-11-20T02:03:29;4.70;;;4.17;;
14048;SDS011;7099;53.922;10.728;2022-11-20T02:07:35;5.40;;;4.33;;
14048;SDS011;7099;53.922;10.728;2022-11-20T02:11:40;8.20;;;5.20;;
14048;SDS011;7099;53.922;10.728;2022-11-20T02:15:45;23.67;;;8.80;;
14048;SDS011;7099;53.922;10.728;2022-11-20T02:19:51;12.33;;;6.30;;
14048;SDS011;7099;53.922;10.728;2022-11-20T02:24:09;5.37;;;4.47;;
14048;SDS011;7099;53.922;10.728;2022-11-20T02:28:17;5.93;;;4.87;;
14048;SDS011;7099;53.922;10.728;2022-11-20T02:32:29;31.27;;;10.67;;
14048;SDS011;7099;53.922;10.728;2022-11-20T02:36:44;76.40;;;22.87;;
14048;SDS011;7099;53.922;10.728;2022-11-20T02:40:50;49.63;;;17.17;;
14048;SDS011;7099;53.922;10.728;2022-11-20T02:44:59;11.33;;;6.50;;
14048;SDS011;7099;53.922;10.728;2022-11-20T02:49:04;5.60;;;5.10;;
14048;SDS011;7099;53.922;10.728;2022-11-20T02:53:09;6.37;;;5.07;;
14048;SDS011;7099;53.922;10.728;2022-11-20T02:57:14;5.57;;;4.63;;
14048;SDS011;7099;53.922;10.728;2022-11-20T03:01:19;9.13;;;4.93;;
14048;SDS011;7099;53.922;10.728;2022-11-20T03:05:24;5.50;;;4.97;;
14048;SDS011;7099;53.922;10.728;2022-11-20T03:09:29;5.70;;;4.87;;
14048;SDS011;7099;53.922;10.728;2022-11-20T03:13:35;5.67;;;4.80;;
14048;SDS011;7099;53.922;10.728;2022-11-20T03:17:40;4.30;;;3.90;;
14048;SDS011;7099;53.922;10.728;2022-11-20T03:21:45;5.07;;;4.33;;
14048;SDS011;7099;53.922;10.728;2022-11-20T03:25:50;5.83;;;4.20;;
14048;SDS011;7099;53.922;10.728;2022-11-20T03:29:55;5.27;;;4.37;;
14048;SDS011;7099;53.922;10.728;2022-11-20T03:34:00;5.50;;;4.60;;
14048;SDS011;7099;53.922;10.728;2022-11-20T03:38:06;5.63;;;4.37;;
14048;SDS011;7099;53.922;10.728;2022-11-20T03:42:10;5.43;;;4.00;;
14048;SDS011;7099;53.922;10.728;2022-11-20T03:46:34;5.57;;;4.40;;
14048;SDS011;7099;53.922;10.728;2022-11-20T03:50:39;6.00;;;4.07;;
14048;SDS011;7099;53.922;10.728;2022-11-20T03:54:44;5.33;;;4.80;;
14048;SDS011;7099;53.922;10.728;2022-11-20T03:58:49;5.83;;;4.10;;
14048;SDS011;7099;53.922;10.728;2022-11-20T04:02:57;4.83;;;4.37;;
14048;SDS011;7099;53.922;10.728;2022-11-20T04:07:03;4.63;;;4.23;;
14048;SDS011;7099;53.922;10.728;2022-11-20T04:15:14;10.20;;;5.00;;
14048;SDS011;7099;53.922;10.728;2022-11-20T04:19:19;5.83;;;4.20;;
14048;SDS011;7099;53.922;10.728;2022-11-20T04:23:24;6.63;;;4.73;;
14048;SDS011;7099;53.922;10.728;2022-11-20T04:27:32;6.57;;;4.37;;
14048;SDS011;7099;53.922;10.728;2022-11-20T04:31:37;7.70;;;5.10;;
14048;SDS011;7099;53.922;10.728;2022-11-20T04:35:42;9.63;;;4.73;;
14048;SDS011;7099;53.922;10.728;2022-11-20T04:39:50;7.20;;;4.50;;
14048;SDS011;7099;53.922;10.728;2022-11-20T04:43:56;4.97;;;4.47;;
14048;SDS011;7099;53.922;10.728;2022-11-20T04:48:06;6.10;;;4.93;;
14048;SDS011;7099;53.922;10.728;2022-11-20T04:52:11;5.57;;;4.63;;
14048;SDS011;7099;53.922;10.728;2022-11-20T04:56:16;5.00;;;4.17;;
14048;SDS011;7099;53.922;10.728;2022-11-20T05:00:21;7.67;;;4.60;;
14048;SDS011;7099;53.922;10.728;2022-11-20T05:04:26;6.50;;;4.20;;
14048;SDS011;7099;53.922;10.728;2022-11-20T05:08:31;8.93;;;4.10;;
14048;SDS011;7099;53.922;10.728;2022-11-20T05:12:37;5.07;;;4.30;;
14048;SDS011;7099;53.922;10.728;2022-11-20T05:16:42;4.27;;;3.87;;
14048;SDS011;7099;53.922;10.728;2022-11-20T05:20:48;5.47;;;4.57;;
14048;SDS011;7099;53.922;10.728;2022-11-20T05:25:00;4.20;;;3.80;;
14048;SDS011;7099;53.922;10.728;2022-11-20T05:29:05;6.10;;;3.70;;
14048;SDS011;7099;53.922;10.728;2022-11-20T05:33:10;4.53;;;3.90;;
14048;SDS011;7099;53.922;10.728;2022-11-20T05:37:15;9.03;;;3.50;;
14048;SDS011;7099;53.922;10.728;2022-11-20T05:41:20;3.53;;;3.20;;
14048;SDS011;7099;53.922;10.728;2022-11-20T05:45:25;3.30;;;3.00;;
14048;SDS011;7099;53.922;10.728;2022-11-20T05:49:30;3.20;;;2.70;;
14048;SDS011;7099;53.922;10.728;2022-11-20T05:53:36;4.10;;;3.03;;
14048;SDS011;7099;53.922;10.728;2022-11-20T05:57:44;3.67;;;3.10;;
14048;SDS011;7099;53.922;10.728;2022-11-20T06:01:49;3.07;;;2.77;;
14048;SDS011;7099;53.922;10.728;2022-11-20T06:05:54;2.80;;;2.50;;
14048;SDS011;7099;53.922;10.728;2022-11-20T06:09:59;2.67;;;2.47;;
14048;SDS011;7099;53.922;10.728;2022-11-20T06:14:03;2.50;;;2.30;;
14048;SDS011;7099;53.922;10.728;2022-11-20T06:18:09;2.90;;;2.63;;
14048;SDS011;7099;53.922;10.728;2022-11-20T06:22:13;2.70;;;2.43;;
14048;SDS011;7099;53.922;10.728;2022-11-20T06:26:22;2.10;;;1.90;;
14048;SDS011;7099;53.922;10.728;2022-11-20T06:30:31;2.00;;;1.90;;
14048;SDS011;7099;53.922;10.728;2022-11-20T06:34:36;2.30;;;2.20;;
14048;SDS011;7099;53.922;10.728;2022-11-20T06:38:41;2.30;;;2.10;;
14048;SDS011;7099;53.922;10.728;2022-11-20T06:42:46;2.10;;;1.97;;
14048;SDS011;7099;53.922;10.728;2022-11-20T06:46:51;2.37;;;2.23;;
14048;SDS011;7099;53.922;10.728;2022-11-20T06:50:56;2.37;;;2.17;;
14048;SDS011;7099;53.922;10.728;2022-11-20T06:55:02;2.53;;;2.30;;
14048;SDS011;7099;53.922;10.728;2022-11-20T06:59:07;2.43;;;2.23;;
14048;SDS011;7099;53.922;10.728;2022-11-20T07:03:12;3.53;;;2.90;;
14048;SDS011;7099;53.922;10.728;2022-11-20T07:07:17;3.37;;;2.73;;
14048;SDS011;7099;53.922;10.728;2022-11-20T07:11:22;2.63;;;2.43;;
14048;SDS011;7099;53.922;10.728;2022-11-20T07:15:28;2.10;;;2.00;;
14048;SDS011;7099;53.922;10.728;2022-11-20T07:19:33;2.07;;;1.97;;
14048;SDS011;7099;53.922;10.728;2022-11-20T07:23:37;2.27;;;2.07;;
14048;SDS011;7099;53.922;10.728;2022-11-20T07:27:42;2.07;;;1.90;;
14048;SDS011;7099;53.922;10.728;2022-11-20T07:31:47;1.93;;;1.83;;
14048;SDS011;7099;53.922;10.728;2022-11-20T07:35:52;1.93;;;1.83;;
14048;SDS011;7099;53.922;10.728;2022-11-20T07:39:57;1.80;;;1.70;;
14048;SDS011;7099;53.922;10.728;2022-11-20T07:44:02;4.23;;;3.40;;
14048;SDS011;7099;53.922;10.728;2022-11-20T07:48:07;3.37;;;2.77;;
14048;SDS011;7099;53.922;10.728;2022-11-20T07:52:12;2.53;;;2.33;;
14048;SDS011;7099;53.922;10.728;2022-11-20T07:56:17;2.37;;;2.20;;
14048;SDS011;7099;53.922;10.728;2022-11-20T08:00:22;2.03;;;1.93;;
14048;SDS011;7099;53.922;10.728;2022-11-20T08:04:29;2.20;;;2.10;;
14048;SDS011;7099;53.922;10.728;2022-11-20T08:08:33;2.60;;;2.40;;
14048;SDS011;7099;53.922;10.728;2022-11-20T08:17:10;4.40;;;3.50;;
14048;SDS011;7099;53.922;10.728;2022-11-20T08:21:16;3.50;;;3.20;;
14048;SDS011;7099;53.922;10.728;2022-11-20T08:25:21;8.80;;;4.73;;
14048;SDS011;7099;53.922;10.728;2022-11-20T08:29:26;6.57;;;4.40;;
14048;SDS011;7099;53.922;10.728;2022-11-20T08:33:31;9.80;;;6.37;;
14048;SDS011;7099;53.922;10.728;2022-11-20T08:37:36;4.00;;;3.60;;
14048;SDS011;7099;53.922;10.728;2022-11-20T08:41:45;6.10;;;4.00;;
14048;SDS011;7099;53.922;10.728;2022-11-20T08:45:50;5.60;;;4.20;;
14048;SDS011;7099;53.922;10.728;2022-11-20T08:49:55;6.10;;;4.30;;
14048;SDS011;7099;53.922;10.728;2022-11-20T08:54:00;22.87;;;16.23;;
14048;SDS011;7099;53.922;10.728;2022-11-20T08:58:08;5.93;;;5.33;;
14048;SDS011;7099;53.922;10.728;2022-11-20T09:02:13;4.00;;;3.60;;
14048;SDS011;7099;53.922;10.728;2022-11-20T09:06:18;5.13;;;4.40;;
14048;SDS011;7099;53.922;10.728;2022-11-20T09:10:23;5.07;;;4.33;;
14048;SDS011;7099;53.922;10.728;2022-11-20T09:14:28;5.30;;;4.80;;
14048;SDS011;7099;53.922;10.728;2022-11-20T09:18:34;3.80;;;3.50;;
14048;SDS011;7099;53.922;10.728;2022-11-20T09:22:41;4.40;;;4.00;;
14048;SDS011;7099;53.922;10.728;2022-11-20T09:26:46;4.27;;;3.87;;
14048;SDS011;7099;53.922;10.728;2022-11-20T09:30:51;4.20;;;3.80;;
14048;SDS011;7099;53.922;10.728;2022-11-20T09:34:56;4.80;;;3.77;;
14048;SDS011;7099;53.922;10.728;2022-11-20T09:39:01;4.20;;;3.80;;
14048;SDS011;7099;53.922;10.728;2022-11-20T09:43:11;4.10;;;3.70;;
14048;SDS011;7099;53.922;10.728;2022-11-20T09:47:37;3.77;;;3.40;;
14048;SDS011;7099;53.922;10.728;2022-11-20T09:51:52;3.33;;;3.00;;
14048;SDS011;7099;53.922;10.728;2022-11-20T09:56:01;3.13;;;2.83;;
14048;SDS011;7099;53.922;10.728;2022-11-20T10:00:09;3.60;;;3.20;;
14048;SDS011;7099;53.922;10.728;2022-11-20T10:04:18;5.53;;;5.03;;
14048;SDS011;7099;53.922;10.728;2022-11-20T10:08:26;4.20;;;3.20;;
14048;SDS011;7099;53.922;10.728;2022-11-20T10:26:47;3.00;;;2.80;;
14048;SDS011;7099;53.922;10.728;2022-11-20T10:31:50;2.33;;;2.13;;
14048;SDS011;7099;53.922;10.728;2022-11-20T10:35:55;2.77;;;2.57;;
14048;SDS011;7099;53.922;10.728;2022-11-20T10:40:31;3.33;;;3.00;;
14048;SDS011;7099;53.922;10.728;2022-11-20T10:44:48;2.50;;;2.30;;
14048;SDS011;7099;53.922;10.728;2022-11-20T10:49:13;3.60;;;3.30;;
14048;SDS011;7099;53.922;10.728;2022-11-20T10:57:51;3.03;;;2.57;;
14048;SDS011;7099;53.922;10.728;2022-11-20T11:02:21;1.80;;;1.70;;
14048;SDS011;7099;53.922;10.728;2022-11-20T11:06:40;3.20;;;2.73;;
14048;SDS011;7099;53.922;10.728;2022-11-20T11:10:52;2.90;;;2.60;;
14048;SDS011;7099;53.922;10.728;2022-11-20T11:15:03;4.47;;;3.53;;
14048;SDS011;7099;53.922;10.728;2022-11-20T11:19:12;2.83;;;2.63;;
14048;SDS011;7099;53.922;10.728;2022-11-20T11:23:38;2.37;;;1.90;;
14048;SDS011;7099;53.922;10.728;2022-11-20T11:27:49;1.60;;;1.50;;
14048;SDS011;7099;53.922;10.728;2022-11-20T11:32:11;1.87;;;1.77;;
14048;SDS011;7099;53.922;10.728;2022-11-20T11:36:19;1.47;;;1.30;;
14048;SDS011;7099;53.922;10.728;2022-11-20T11:40:30;1.03;;;1.03;;
14048;SDS011;7099;53.922;10.728;2022-11-20T11:44:38;1.87;;;1.77;;
14048;SDS011;7099;53.922;10.728;2022-11-20T11:53:16;1.33;;;1.23;;
14048;SDS011;7099;53.922;10.728;2022-11-20T12:06:05;2.40;;;2.30;;
14048;SDS011;7099;53.922;10.728;2022-11-20T12:15:19;1.67;;;1.57;;
14048;SDS011;7099;53.922;10.728;2022-11-20T12:19:34;5.10;;;2.03;;
14048;SDS011;7099;53.922;10.728;2022-11-20T12:37:43;7.90;;;5.17;;
14048;SDS011;7099;53.922;10.728;2022-11-20T12:47:28;2.47;;;2.27;;
14048;SDS011;7099;53.922;10.728;2022-11-20T13:01:10;2.80;;;2.60;;
14048;SDS011;7099;53.922;10.728;2022-11-20T13:05:53;3.10;;;2.40;;
14048;SDS011;7099;53.922;10.728;2022-11-20T13:10:17;2.27;;;2.07;;
14048;SDS011;7099;53.922;10.728;2022-11-20T13:14:52;2.03;;;1.87;;
14048;SDS011;7099;53.922;10.728;2022-11-20T13:19:18;2.17;;;1.97;;
14048;SDS011;7099;53.922;10.728;2022-11-20T13:23:27;2.40;;;2.20;;
14048;SDS011;7099;53.922;10.728;2022-11-20T13:27:32;4.23;;;2.00;;
14048;SDS011;7099;53.922;10.728;2022-11-20T13:31:38;2.57;;;2.30;;
14048;SDS011;7099;53.922;10.728;2022-11-20T13:36:34;1.80;;;1.70;;
14048;SDS011;7099;53.922;10.728;2022-11-20T13:40:31;2.20;;;1.83;;
14048;SDS011;7099;53.922;10.728;2022-11-20T13:44:39;1.97;;;1.83;;
14048;SDS011;7099;53.922;10.728;2022-11-20T13:48:51;4.87;;;2.40;;
14048;SDS011;7099;53.922;10.728;2022-11-20T13:53:02;2.60;;;2.40;;
14048;SDS011;7099;53.922;10.728;2022-11-20T14:02:15;2.40;;;2.20;;
14048;SDS011;7099;53.922;10.728;2022-11-20T14:06:32;2.10;;;2.00;;
14048;SDS011;7099;53.922;10.728;2022-11-20T14:10:43;2.93;;;2.73;;
14048;SDS011;7099;53.922;10.728;2022-11-20T14:14:49;3.27;;;2.27;;
14048;SDS011;7099;53.922;10.728;2022-11-20T14:18:57;2.60;;;2.40;;
14048;SDS011;7099;53.922;10.728;2022-11-20T14:23:28;4.60;;;2.77;;
14048;SDS011;7099;53.922;10.728;2022-11-20T14:27:34;3.00;;;2.73;;
14048;SDS011;7099;53.922;10.728;2022-11-20T14:31:42;3.27;;;2.50;;
14048;SDS011;7099;53.922;10.728;2022-11-20T14:35:55;2.83;;;2.20;;
14048;SDS011;7099;53.922;10.728;2022-11-20T14:40:01;4.70;;;2.40;;
14048;SDS011;7099;53.922;10.728;2022-11-20T14:44:08;7.87;;;6.50;;
14048;SDS011;7099;53.922;10.728;2022-11-20T14:48:14;4.00;;;3.60;;
14048;SDS011;7099;53.922;10.728;2022-11-20T14:52:23;3.07;;;2.87;;
14048;SDS011;7099;53.922;10.728;2022-11-20T14:56:31;3.47;;;2.77;;
14048;SDS011;7099;53.922;10.728;2022-11-20T15:00:36;2.30;;;2.20;;
14048;SDS011;7099;53.922;10.728;2022-11-20T15:04:45;3.47;;;3.17;;
14048;SDS011;7099;53.922;10.728;2022-11-20T15:08:55;3.20;;;3.00;;
14048;SDS011;7099;53.922;10.728;2022-11-20T15:13:05;9.10;;;2.93;;
14048;SDS011;7099;53.922;10.728;2022-11-20T15:17:16;2.50;;;2.30;;
14048;SDS011;7099;53.922;10.728;2022-11-20T15:21:21;2.70;;;2.50;;
14048;SDS011;7099;53.922;10.728;2022-11-20T15:25:26;3.63;;;2.90;;
14048;SDS011;7099;53.922;10.728;2022-11-20T15:29:32;4.53;;;3.40;;
14048;SDS011;7099;53.922;10.728;2022-11-20T15:33:37;4.50;;;4.10;;
14048;SDS011;7099;53.922;10.728;2022-11-20T15:37:42;6.67;;;5.00;;
14048;SDS011;7099;53.922;10.728;2022-11-20T15:41:47;4.90;;;4.30;;
14048;SDS011;7099;53.922;10.728;2022-11-20T15:50:27;4.63;;;3.80;;
14048;SDS011;7099;53.922;10.728;2022-11-20T15:54:42;3.90;;;3.53;;
14048;SDS011;7099;53.922;10.728;2022-11-20T15:58:47;3.87;;;3.47;;
14048;SDS011;7099;53.922;10.728;2022-11-20T16:02:52;3.70;;;3.20;;
14048;SDS011;7099;53.922;10.728;2022-11-20T16:06:57;4.90;;;2.90;;
14048;SDS011;7099;53.922;10.728;2022-11-20T16:11:02;4.00;;;3.30;;
14048;SDS011;7099;53.922;10.728;2022-11-20T16:15:08;6.87;;;4.83;;
14048;SDS011;7099;53.922;10.728;2022-11-20T16:19:32;5.07;;;4.30;;
14048;SDS011;7099;53.922;10.728;2022-11-20T16:23:37;4.70;;;3.80;;
14048;SDS011;7099;53.922;10.728;2022-11-20T16:27:42;3.17;;;2.83;;
14048;SDS011;7099;53.922;10.728;2022-11-20T16:31:47;4.60;;;3.57;;
14048;SDS011;7099;53.922;10.728;2022-11-20T16:35:51;4.60;;;4.00;;
14048;SDS011;7099;53.922;10.728;2022-11-20T16:39:56;11.70;;;7.73;;
14048;SDS011;7099;53.922;10.728;2022-11-20T16:44:02;11.23;;;7.17;;
14048;SDS011;7099;53.922;10.728;2022-11-20T16:48:14;8.80;;;6.60;;
14048;SDS011;7099;53.922;10.728;2022-11-20T16:52:20;6.77;;;5.03;;
14048;SDS011;7099;53.922;10.728;2022-11-20T16:56:25;7.63;;;5.00;;
14048;SDS011;7099;53.922;10.728;2022-11-20T17:00:31;6.80;;;4.80;;
14048;SDS011;7099;53.922;10.728;2022-11-20T17:04:36;7.10;;;4.77;;
14048;SDS011;7099;53.922;10.728;2022-11-20T17:08:41;7.10;;;4.00;;
14048;SDS011;7099;53.922;10.728;2022-11-20T17:12:46;6.23;;;5.13;;
14048;SDS011;7099;53.922;10.728;2022-11-20T17:16:51;6.47;;;5.30;;
14048;SDS011;7099;53.922;10.728;2022-11-20T17:20:56;7.17;;;5.30;;
14048;SDS011;7099;53.922;10.728;2022-11-20T17:25:03;9.60;;;5.80;;
14048;SDS011;7099;53.922;10.728;2022-11-20T17:29:13;6.00;;;4.87;;
14048;SDS011;7099;53.922;10.728;2022-11-20T17:33:20;7.17;;;4.67;;
14048;SDS011;7099;53.922;10.728;2022-11-20T17:37:25;7.40;;;4.40;;
14048;SDS011;7099;53.922;10.728;2022-11-20T17:41:30;8.27;;;4.93;;
14048;SDS011;7099;53.922;10.728;2022-11-20T17:45:35;6.50;;;5.07;;
14048;SDS011;7099;53.922;10.728;2022-11-20T17:49:40;7.80;;;5.80;;
14048;SDS011;7099;53.922;10.728;2022-11-20T17:53:46;11.20;;;7.33;;
14048;SDS011;7099;53.922;10.728;2022-11-20T17:57:54;14.97;;;8.47;;
14048;SDS011;7099;53.922;10.728;2022-11-20T18:02:01;9.60;;;5.93;;
14048;SDS011;7099;53.922;10.728;2022-11-20T18:06:14;9.33;;;7.13;;
14048;SDS011;7099;53.922;10.728;2022-11-20T18:10:24;9.60;;;7.13;;
14048;SDS011;7099;53.922;10.728;2022-11-20T18:14:31;7.30;;;5.87;;
14048;SDS011;7099;53.922;10.728;2022-11-20T18:18:38;7.90;;;5.80;;
14048;SDS011;7099;53.922;10.728;2022-11-20T18:22:42;5.37;;;4.70;;
14048;SDS011;7099;53.922;10.728;2022-11-20T18:26:48;6.33;;;5.07;;
14048;SDS011;7099;53.922;10.728;2022-11-20T18:30:53;5.93;;;5.00;;
14048;SDS011;7099;53.922;10.728;2022-11-20T18:34:57;6.20;;;4.80;;
14048;SDS011;7099;53.922;10.728;2022-11-20T18:39:03;5.70;;;5.10;;
14048;SDS011;7099;53.922;10.728;2022-11-20T18:43:09;10.50;;;6.63;;
14048;SDS011;7099;53.922;10.728;2022-11-20T18:47:34;9.23;;;6.10;;
14048;SDS011;7099;53.922;10.728;2022-11-20T18:51:41;11.30;;;6.80;;
14048;SDS011;7099;53.922;10.728;2022-11-20T18:55:49;10.17;;;6.80;;
14048;SDS011;7099;53.922;10.728;2022-11-20T18:59:54;10.33;;;6.90;;
14048;SDS011;7099;53.922;10.728;2022-11-20T19:04:10;11.83;;;6.90;;
14048;SDS011;7099;53.922;10.728;2022-11-20T19:08:17;9.77;;;6.57;;
14048;SDS011;7099;53.922;10.728;2022-11-20T19:12:22;6.23;;;4.73;;
14048;SDS011;7099;53.922;10.728;2022-11-20T19:16:27;11.83;;;7.20;;
14048;SDS011;7099;53.922;10.728;2022-11-20T19:20:33;15.83;;;8.27;;
14048;SDS011;7099;53.922;10.728;2022-11-20T19:24:38;17.73;;;8.47;;
14048;SDS011;7099;53.922;10.728;2022-11-20T19:28:43;15.20;;;8.40;;
14048;SDS011;7099;53.922;10.728;2022-11-20T19:32:49;12.83;;;8.13;;
14048;SDS011;7099;53.922;10.728;2022-11-20T19:36:54;11.37;;;6.50;;
14048;SDS011;7099;53.922;10.728;2022-11-20T19:40:59;11.07;;;7.30;;
14048;SDS011;7099;53.922;10.728;2022-11-20T19:45:04;10.30;;;7.10;;
14048;SDS011;7099;53.922;10.728;2022-11-20T19:49:10;9.40;;;6.70;;
14048;SDS011;7099;53.922;10.728;2022-11-20T19:53:17;13.00;;;7.60;;
14048;SDS011;7099;53.922;10.728;2022-11-20T19:57:22;6.67;;;5.43;;
14048;SDS011;7099;53.922;10.728;2022-11-20T20:01:27;9.53;;;6.30;;
14048;SDS011;7099;53.922;10.728;2022-11-20T20:05:34;8.80;;;5.73;;
14048;SDS011;7099;53.922;10.728;2022-11-20T20:09:39;11.63;;;6.70;;
14048;SDS011;7099;53.922;10.728;2022-11-20T20:13:45;10.67;;;7.50;;
14048;SDS011;7099;53.922;10.728;2022-11-20T20:17:51;10.17;;;6.30;;
14048;SDS011;7099;53.922;10.728;2022-11-20T20:21:56;11.77;;;8.60;;
14048;SDS011;7099;53.922;10.728;2022-11-20T20:26:02;7.47;;;5.83;;
14048;SDS011;7099;53.922;10.728;2022-11-20T20:30:09;10.40;;;5.73;;
14048;SDS011;7099;53.922;10.728;2022-11-20T20:34:15;8.37;;;5.73;;
14048;SDS011;7099;53.922;10.728;2022-11-20T20:38:20;10.43;;;7.17;;
14048;SDS011;7099;53.922;10.728;2022-11-20T20:42:25;9.70;;;7.10;;
14048;SDS011;7099;53.922;10.728;2022-11-20T20:46:30;12.77;;;8.57;;
14048;SDS011;7099;53.922;10.728;2022-11-20T20:50:35;21.13;;;11.33;;
14048;SDS011;7099;53.922;10.728;2022-11-20T20:54:40;23.13;;;9.70;;
14048;SDS011;7099;53.922;10.728;2022-11-20T20:58:45;17.07;;;10.00;;
14048;SDS011;7099;53.922;10.728;2022-11-20T21:02:50;12.43;;;8.80;;
14048;SDS011;7099;53.922;10.728;2022-11-20T21:06:55;12.77;;;8.13;;
14048;SDS011;7099;53.922;10.728;2022-11-20T21:11:01;19.33;;;9.50;;
14048;SDS011;7099;53.922;10.728;2022-11-20T21:15:18;14.20;;;8.87;;
14048;SDS011;7099;53.922;10.728;2022-11-20T21:19:22;17.27;;;8.77;;
14048;SDS011;7099;53.922;10.728;2022-11-20T21:23:27;9.97;;;7.70;;
14048;SDS011;7099;53.922;10.728;2022-11-20T21:27:32;11.30;;;7.70;;
14048;SDS011;7099;53.922;10.728;2022-11-20T21:31:37;11.77;;;7.37;;
14048;SDS011;7099;53.922;10.728;2022-11-20T21:35:42;7.50;;;6.13;;
14048;SDS011;7099;53.922;10.728;2022-11-20T21:39:47;13.17;;;8.27;;
14048;SDS011;7099;53.922;10.728;2022-11-20T21:43:55;11.90;;;7.97;;
14048;SDS011;7099;53.922;10.728;2022-11-20T21:48:21;13.40;;;8.30;;
14048;SDS011;7099;53.922;10.728;2022-11-20T21:52:33;13.20;;;8.30;;
14048;SDS011;7099;53.922;10.728;2022-11-20T21:56:38;14.83;;;8.73;;
14048;SDS011;7099;53.922;10.728;2022-11-20T22:00:43;12.97;;;8.90;;
14048;SDS011;7099;53.922;10.728;2022-11-20T22:04:48;16.90;;;9.93;;
14048;SDS011;7099;53.922;10.728;2022-11-20T22:08:52;13.40;;;9.13;;
14048;SDS011;7099;53.922;10.728;2022-11-20T22:12:57;18.77;;;9.27;;
14048;SDS011;7099;53.922;10.728;2022-11-20T22:17:21;13.53;;;8.70;;
14048;SDS011;7099;53.922;10.728;2022-11-20T22:21:45;13.43;;;8.40;;
14048;SDS011;7099;53.922;10.728;2022-11-20T22:25:50;12.43;;;8.33;;
14048;SDS011;7099;53.922;10.728;2022-11-20T22:29:55;11.70;;;8.00;;
14048;SDS011;7099;53.922;10.728;2022-11-20T22:34:00;16.87;;;9.83;;
14048;SDS011;7099;53.922;10.728;2022-11-20T22:38:06;18.97;;;11.33;;
14048;SDS011;7099;53.922;10.728;2022-11-20T22:42:11;17.23;;;10.17;;
14048;SDS011;7099;53.922;10.728;2022-11-20T22:46:17;19.67;;;11.50;;
14048;SDS011;7099;53.922;10.728;2022-11-20T22:50:22;18.20;;;9.90;;
14048;SDS011;7099;53.922;10.728;2022-11-20T22:54:27;15.80;;;10.30;;
14048;SDS011;7099;53.922;10.728;2022-11-20T22:58:32;15.87;;;9.67;;
14048;SDS011;7099;53.922;10.728;2022-11-20T23:02:42;18.70;;;9.73;;
14048;SDS011;7099;53.922;10.728;2022-11-20T23:06:50;14.33;;;9.07;;
14048;SDS011;7099;53.922;10.728;2022-11-20T23:10:58;16.07;;;8.00;;
14048;SDS011;7099;53.922;10.728;2022-11-20T23:15:05;12.83;;;7.40;;
14048;SDS011;7099;53.922;10.728;2022-11-20T23:19:11;11.17;;;7.87;;
14048;SDS011;7099;53.922;10.728;2022-11-20T23:23:17;12.77;;;8.67;;
14048;SDS011;7099;53.922;10.728;2022-11-20T23:27:22;12.80;;;8.73;;
14048;SDS011;7099;53.922;10.728;2022-11-20T23:31:31;14.97;;;9.87;;
14048;SDS011;7099;53.922;10.728;2022-11-20T23:35:38;13.50;;;8.80;;
14048;SDS011;7099;53.922;10.728;2022-11-20T23:39:43;11.77;;;7.83;;
14048;SDS011;7099;53.922;10.728;2022-11-20T23:43:48;12.47;;;9.10;;
14048;SDS011;7099;53.922;10.728;2022-11-20T23:47:53;12.97;;;9.00;;
14048;SDS011;7099;53.922;10.728;2022-11-20T23:51:59;13.33;;;8.63;;
14048;SDS011;7099;53.922;10.728;2022-11-20T23:56:04;10.60;;;7.90;;
